Time;durP1;ratioP1;P1;durP2;ratioP2;P2;SDS_P1;SDS_P2;PMS_P1;PMS_P2;Temp;Humidity;BMP_temperature;BMP_pressure;BME280_temperature;BME280_humidity;BME280_pressure;Samples;Min_cycle;Max_cycle;Signal;HPM_P1;HPM_P2
2021/05/27 00:00:58;;;;;;;12.13;5.00;;;11.20;99.90;;;;;;5056274;28;20055;-72
2021/05/27 00:03:25;;;;;;;13.15;5.05;;;11.20;99.90;;;;;;5060996;28;20072;-72
2021/05/27 00:05:51;;;;;;;10.13;4.63;;;11.10;99.90;;;;;;5042900;28;20041;-72
2021/05/27 00:08:18;;;;;;;10.50;4.82;;;11.10;99.90;;;;;;5056869;28;20083;-72
2021/05/27 00:10:45;;;;;;;11.40;4.57;;;11.10;99.90;;;;;;5032722;28;20049;-72
2021/05/27 00:13:12;;;;;;;12.90;5.43;;;11.10;99.90;;;;;;5057880;28;20076;-74
2021/05/27 00:15:40;;;;;;;12.35;5.47;;;11.10;99.90;;;;;;5032636;28;20049;-72
2021/05/27 00:18:07;;;;;;;17.55;6.50;;;11.00;99.90;;;;;;5036265;28;20053;-72
2021/05/27 00:20:34;;;;;;;14.73;5.55;;;11.00;99.90;;;;;;5062185;28;22580;-72
2021/05/27 00:23:00;;;;;;;12.00;5.22;;;11.00;99.90;;;;;;5061288;28;20275;-72
2021/05/27 00:25:30;;;;;;;15.32;6.00;;;11.00;99.90;;;;;;5049550;28;20057;-72
2021/05/27 00:27:57;;;;;;;14.40;6.13;;;10.90;99.90;;;;;;5053168;28;20090;-72
2021/05/27 00:30:26;;;;;;;12.57;5.18;;;10.90;99.90;;;;;;5053405;28;20156;-72
2021/05/27 00:32:53;;;;;;;12.88;5.97;;;10.90;99.90;;;;;;5050980;28;20045;-72
2021/05/27 00:35:19;;;;;;;11.93;4.88;;;10.90;99.90;;;;;;5050379;28;20091;-73
2021/05/27 00:37:46;;;;;;;13.25;5.15;;;10.90;99.90;;;;;;5036877;28;20084;-72
2021/05/27 00:40:16;;;;;;;11.55;5.25;;;10.90;99.90;;;;;;5050164;28;20488;-73
2021/05/27 00:42:44;;;;;;;15.25;5.95;;;10.80;99.90;;;;;;5057978;28;20073;-72
2021/05/27 00:45:13;;;;;;;15.20;5.80;;;10.90;99.90;;;;;;5045181;28;20074;-72
2021/05/27 00:47:40;;;;;;;12.52;6.50;;;10.80;99.90;;;;;;5058326;28;20049;-71
2021/05/27 00:50:11;;;;;;;14.00;5.87;;;10.80;99.90;;;;;;5048466;28;20069;-72
2021/05/27 00:52:39;;;;;;;16.08;6.05;;;10.80;99.90;;;;;;5051834;28;20057;-71
2021/05/27 00:55:06;;;;;;;14.03;5.20;;;10.80;99.90;;;;;;5048265;28;20083;-71
2021/05/27 00:57:37;;;;;;;14.97;4.83;;;10.80;99.90;;;;;;5052178;28;20080;-72
2021/05/27 01:00:11;;;;;;;12.13;5.07;;;10.80;99.90;;;;;;5036535;28;20049;-72
2021/05/27 01:02:38;;;;;;;10.48;4.88;;;10.80;99.90;;;;;;5052732;28;20132;-72
2021/05/27 01:05:08;;;;;;;13.27;4.77;;;10.80;99.90;;;;;;5055724;28;20072;-72
2021/05/27 01:07:35;;;;;;;14.13;6.32;;;10.80;99.90;;;;;;5052308;28;20152;-72
2021/05/27 01:10:05;;;;;;;10.90;5.40;;;10.80;99.90;;;;;;5042773;28;20128;-72
2021/05/27 01:12:32;;;;;;;11.82;5.43;;;10.80;99.90;;;;;;5053570;28;20049;-72
2021/05/27 01:17:44;;;;;;;9.88;4.70;;;10.70;99.90;;;;;;5044313;28;20861;-72
2021/05/27 01:20:16;;;;;;;15.95;5.75;;;10.70;99.90;;;;;;5046795;28;20083;-72
2021/05/27 01:22:44;;;;;;;10.95;4.80;;;10.70;99.90;;;;;;5046025;28;20502;-72
2021/05/27 01:25:14;;;;;;;9.93;3.90;;;10.70;99.90;;;;;;5052462;28;20138;-71
2021/05/27 01:27:41;;;;;;;10.65;4.85;;;10.60;99.90;;;;;;5055555;28;20501;-72
2021/05/27 01:30:10;;;;;;;13.15;5.65;;;10.60;99.90;;;;;;5063871;28;20088;-72
2021/05/27 01:32:37;;;;;;;10.98;5.53;;;10.60;99.90;;;;;;5049742;28;20464;-72
2021/05/27 01:35:12;;;;;;;11.45;4.60;;;10.60;99.90;;;;;;5052405;28;20473;-72
2021/05/27 01:37:39;;;;;;;12.27;4.85;;;10.60;99.90;;;;;;5044136;28;20087;-72
2021/05/27 01:40:07;;;;;;;11.73;5.45;;;10.50;99.90;;;;;;5052567;28;20045;-73
2021/05/27 01:42:34;;;;;;;14.18;5.13;;;10.50;99.90;;;;;;5043914;28;20084;-72
2021/05/27 01:45:00;;;;;;;14.13;5.30;;;10.50;99.90;;;;;;5053510;28;20076;-72
2021/05/27 01:47:27;;;;;;;12.40;5.35;;;10.50;99.90;;;;;;5049024;28;20075;-72
2021/05/27 01:49:54;;;;;;;9.48;5.20;;;10.50;99.90;;;;;;5048655;28;20077;-72
2021/05/27 01:52:21;;;;;;;14.15;5.72;;;10.40;99.90;;;;;;5029747;28;20087;-71
2021/05/27 01:54:47;;;;;;;10.52;5.35;;;10.40;99.90;;;;;;5060602;28;20072;-71
2021/05/27 01:57:14;;;;;;;10.77;4.90;;;10.40;99.90;;;;;;5046874;28;20123;-73
2021/05/27 01:59:41;;;;;;;9.65;4.57;;;10.40;99.90;;;;;;5049103;28;20094;-71
2021/05/27 02:02:32;;;;;;;14.52;5.57;;;10.40;99.90;;;;;;5048516;28;20081;-72
2021/05/27 02:04:59;;;;;;;12.98;5.00;;;10.40;99.90;;;;;;5050979;28;20084;-72
2021/05/27 02:07:29;;;;;;;12.68;5.38;;;10.40;99.90;;;;;;5051494;28;20131;-72
2021/05/27 02:09:56;;;;;;;12.27;4.80;;;10.40;99.90;;;;;;5051181;28;20083;-72
2021/05/27 02:12:22;;;;;;;13.13;5.72;;;10.40;99.90;;;;;;5051024;28;20076;-72
2021/05/27 02:14:49;;;;;;;12.43;5.22;;;10.40;99.90;;;;;;5048704;28;20077;-72
2021/05/27 02:17:16;;;;;;;12.32;5.57;;;10.40;99.90;;;;;;5050581;28;20083;-72
2021/05/27 02:19:42;;;;;;;12.93;5.55;;;10.40;99.90;;;;;;5044823;28;20073;-72
2021/05/27 02:22:09;;;;;;;10.85;5.03;;;10.40;99.90;;;;;;5048053;28;20400;-72
2021/05/27 02:24:36;;;;;;;12.80;5.28;;;10.40;99.90;;;;;;5052660;28;20105;-71
2021/05/27 02:27:03;;;;;;;11.57;5.13;;;10.40;99.90;;;;;;5049477;28;20080;-72
2021/05/27 02:29:30;;;;;;;9.85;5.10;;;10.40;99.90;;;;;;5050794;28;20072;-71
2021/05/27 02:31:57;;;;;;;13.02;5.30;;;10.40;99.90;;;;;;5049486;28;20076;-71
2021/05/27 02:34:23;;;;;;;12.02;4.72;;;10.40;99.90;;;;;;5069072;28;20490;-72
2021/05/27 02:36:50;;;;;;;14.73;5.75;;;10.40;99.90;;;;;;5049999;28;20088;-71
2021/05/27 02:39:17;;;;;;;13.05;5.07;;;10.40;99.90;;;;;;5056721;28;20098;-71
2021/05/27 02:41:44;;;;;;;8.57;5.00;;;10.40;99.90;;;;;;5048014;28;20141;-72
2021/05/27 02:44:11;;;;;;;8.68;4.40;;;10.30;99.90;;;;;;5053303;28;20509;-72
2021/05/27 02:46:37;;;;;;;14.02;4.93;;;10.30;99.90;;;;;;5037317;28;20107;-71
2021/05/27 02:49:06;;;;;;;14.05;5.80;;;10.30;99.90;;;;;;5060361;28;20045;-71
2021/05/27 02:51:33;;;;;;;13.15;4.88;;;10.30;99.90;;;;;;5046310;28;20049;-72
2021/05/27 02:53:59;;;;;;;14.30;6.18;;;10.30;99.90;;;;;;5046694;28;20053;-72
2021/05/27 02:56:27;;;;;;;13.02;5.30;;;10.30;99.90;;;;;;5054489;28;20132;-71
2021/05/27 02:58:53;;;;;;;11.15;4.22;;;10.30;99.90;;;;;;5060919;28;20045;-71
2021/05/27 03:01:21;;;;;;;10.70;5.30;;;10.30;99.90;;;;;;5049448;28;20072;-71
2021/05/27 03:03:48;;;;;;;12.52;5.10;;;10.30;99.90;;;;;;5029923;28;20179;-71
2021/05/27 03:06:14;;;;;;;11.52;4.78;;;10.20;99.90;;;;;;5048452;28;20076;-71
2021/05/27 03:08:41;;;;;;;8.10;4.78;;;10.20;99.90;;;;;;5047411;28;20076;-71
2021/05/27 03:11:09;;;;;;;9.45;4.35;;;10.20;99.90;;;;;;5055820;28;20472;-71
2021/05/27 03:13:36;;;;;;;10.70;4.35;;;10.20;99.90;;;;;;5061916;28;20090;-71
2021/05/27 03:16:04;;;;;;;10.70;4.53;;;10.20;99.90;;;;;;5055084;28;20126;-71
2021/05/27 03:18:31;;;;;;;8.65;4.30;;;10.20;99.90;;;;;;5058790;28;20138;-71
2021/05/27 03:20:58;;;;;;;10.07;4.55;;;10.20;99.90;;;;;;5048498;28;20158;-71
2021/05/27 03:23:25;;;;;;;13.45;5.05;;;10.20;99.90;;;;;;5060802;28;20097;-71
2021/05/27 03:25:53;;;;;;;10.98;4.35;;;10.20;99.90;;;;;;5035198;28;20068;-71
2021/05/27 03:28:19;;;;;;;12.70;4.85;;;10.10;99.90;;;;;;5063373;28;20634;-72
2021/05/27 03:30:46;;;;;;;8.63;4.30;;;10.10;99.90;;;;;;5054032;28;20057;-72
2021/05/27 03:33:13;;;;;;;10.95;4.60;;;10.10;99.90;;;;;;5061463;28;20041;-72
2021/05/27 03:35:40;;;;;;;12.23;4.45;;;10.10;99.90;;;;;;5053612;28;20057;-71
2021/05/27 03:38:07;;;;;;;14.65;5.45;;;10.10;99.90;;;;;;5052852;28;20127;-71
2021/05/27 03:40:33;;;;;;;12.43;5.20;;;10.10;99.90;;;;;;5029822;28;20394;-72
2021/05/27 03:43:00;;;;;;;13.32;4.70;;;10.10;99.90;;;;;;5056600;28;20098;-72
2021/05/27 03:45:29;;;;;;;11.13;4.32;;;10.10;99.90;;;;;;5053461;28;20102;-72
2021/05/27 03:47:56;;;;;;;11.25;4.78;;;10.10;99.90;;;;;;5050861;28;20072;-72
2021/05/27 03:50:25;;;;;;;10.80;4.45;;;10.10;99.90;;;;;;5046412;28;20076;-72
2021/05/27 03:52:53;;;;;;;11.35;4.30;;;10.10;99.90;;;;;;5054437;28;20080;-72
2021/05/27 03:55:21;;;;;;;11.95;4.22;;;10.10;99.90;;;;;;5038729;28;20098;-72
2021/05/27 03:57:49;;;;;;;11.88;4.32;;;10.10;99.90;;;;;;5058819;28;20463;-74
2021/05/27 04:03:05;;;;;;;11.55;4.05;;;10.10;99.90;;;;;;5058598;28;20037;-71
2021/05/27 04:08:18;;;;;;;11.55;4.85;;;10.10;99.90;;;;;;5045838;28;20082;-71
2021/05/27 04:10:46;;;;;;;9.65;4.68;;;10.10;99.90;;;;;;5049761;28;20084;-72
2021/05/27 04:13:13;;;;;;;10.70;4.20;;;10.10;99.90;;;;;;5052609;28;20113;-71
2021/05/27 04:15:41;;;;;;;12.07;4.10;;;10.10;99.90;;;;;;5052811;28;20457;-71
2021/05/27 04:18:17;;;;;;;11.50;5.07;;;10.10;99.90;;;;;;5049839;28;20049;-71
2021/05/27 04:20:51;;;;;;;10.68;4.45;;;10.10;99.90;;;;;;5048322;28;20049;-71
2021/05/27 04:23:36;;;;;;;12.55;5.25;;;10.10;99.90;;;;;;5043204;28;20088;-72
2021/05/27 04:26:13;;;;;;;13.60;4.20;;;10.10;99.90;;;;;;5062052;28;20685;-73
2021/05/27 04:28:41;;;;;;;11.05;4.43;;;10.10;99.90;;;;;;5056405;28;20472;-71
2021/05/27 04:31:14;;;;;;;10.98;3.97;;;10.10;99.90;;;;;;5039984;28;20558;-71
2021/05/27 04:33:44;;;;;;;15.05;4.97;;;10.10;99.90;;;;;;5059756;28;20069;-71
2021/05/27 04:36:13;;;;;;;12.05;4.97;;;10.10;99.90;;;;;;5038312;28;20136;-72
2021/05/27 04:38:41;;;;;;;9.85;4.18;;;10.10;99.90;;;;;;5043730;28;20130;-71
2021/05/27 04:41:08;;;;;;;12.23;4.47;;;10.10;99.90;;;;;;5027545;28;20484;-71
2021/05/27 04:43:35;;;;;;;11.98;4.13;;;10.10;99.90;;;;;;5051673;28;20073;-71
2021/05/27 04:46:03;;;;;;;14.15;5.00;;;10.10;99.90;;;;;;5041531;28;20080;-71
2021/05/27 04:48:30;;;;;;;12.10;4.67;;;10.10;99.90;;;;;;5047598;28;20053;-72
2021/05/27 04:51:06;;;;;;;12.25;4.95;;;10.10;99.90;;;;;;5040772;28;20386;-71
2021/05/27 04:53:32;;;;;;;11.15;5.07;;;10.10;99.90;;;;;;5021953;28;20049;-71
2021/05/27 04:55:59;;;;;;;10.45;4.78;;;10.10;99.90;;;;;;5044946;28;20064;-71
2021/05/27 04:58:29;;;;;;;13.50;5.00;;;10.10;99.90;;;;;;5040705;28;20152;-71
2021/05/27 05:00:57;;;;;;;10.18;4.18;;;10.10;99.90;;;;;;5045113;28;20044;-71
2021/05/27 05:03:24;;;;;;;;;;;10.10;99.90;;;;;;5042601;28;20051;-71
2021/05/27 05:05:51;;;;;;;14.07;4.72;;;10.10;99.90;;;;;;5046762;28;19967;-72
2021/05/27 05:08:18;;;;;;;10.23;4.43;;;10.10;99.90;;;;;;5064286;28;20492;-71
2021/05/27 05:10:45;;;;;;;14.90;4.95;;;10.10;99.90;;;;;;5041429;28;20083;-71
2021/05/27 05:13:12;;;;;;;9.20;4.60;;;10.10;99.90;;;;;;5029237;28;20441;-71
2021/05/27 05:15:40;;;;;;;12.95;4.80;;;10.20;99.90;;;;;;5023555;28;20106;-71
2021/05/27 05:18:10;;;;;;;17.38;5.57;;;10.20;99.90;;;;;;5037069;28;20118;-72
2021/05/27 05:20:40;;;;;;;15.60;5.20;;;10.20;99.90;;;;;;5042901;28;20555;-71
2021/05/27 05:23:08;;;;;;;11.88;4.97;;;10.20;99.90;;;;;;5050741;28;20500;-71
2021/05/27 05:25:37;;;;;;;13.35;5.40;;;10.20;99.90;;;;;;5023494;28;20641;-70
2021/05/27 05:28:05;;;;;;;16.50;6.10;;;10.20;99.90;;;;;;5044488;28;20057;-71
2021/05/27 05:30:32;;;;;;;10.90;5.30;;;10.20;99.90;;;;;;5039992;28;20460;-71
2021/05/27 05:33:00;;;;;;;12.40;4.57;;;10.20;99.90;;;;;;5022707;28;20042;-71
2021/05/27 05:35:28;;;;;;;11.60;4.60;;;10.20;99.90;;;;;;5046895;28;20094;-71
2021/05/27 05:37:57;;;;;;;11.38;5.10;;;10.20;99.90;;;;;;5049305;28;20115;-71
2021/05/27 05:40:27;;;;;;;10.57;4.72;;;10.20;99.90;;;;;;5039563;28;20041;-71
2021/05/27 05:42:55;;;;;;;14.45;5.43;;;10.20;99.90;;;;;;5052793;28;20397;-71
2021/05/27 05:45:23;;;;;;;11.73;5.25;;;10.20;99.90;;;;;;5035627;28;20052;-71
2021/05/27 05:47:55;;;;;;;11.30;5.20;;;10.20;99.90;;;;;;5050276;28;20044;-71
2021/05/27 05:53:09;;;;;;;14.38;5.18;;;10.20;99.90;;;;;;5041788;28;20073;-71
2021/05/27 05:55:37;;;;;;;11.32;4.85;;;10.20;99.90;;;;;;5064531;28;20499;-71
2021/05/27 05:58:04;;;;;;;11.00;5.03;;;10.20;99.90;;;;;;5060324;28;20075;-71
2021/05/27 06:00:32;;;;;;;10.25;5.57;;;10.20;99.90;;;;;;5037246;28;20045;-71
2021/05/27 06:02:58;;;;;;;13.77;5.00;;;10.20;99.90;;;;;;5042178;28;20454;-71
2021/05/27 06:05:25;;;;;;;16.45;6.25;;;10.20;99.90;;;;;;5039061;28;20045;-71
2021/05/27 06:07:53;;;;;;;10.80;4.43;;;10.20;99.90;;;;;;5047312;28;20041;-71
2021/05/27 06:10:20;;;;;;;15.25;5.07;;;10.20;99.90;;;;;;5045296;28;20119;-71
2021/05/27 06:12:51;;;;;;;14.15;5.25;;;10.20;99.90;;;;;;5046530;28;20091;-71
2021/05/27 06:15:21;;;;;;;16.20;4.93;;;10.20;99.90;;;;;;5030064;28;20542;-71
2021/05/27 06:17:56;;;;;;;11.85;4.40;;;10.20;99.90;;;;;;5015778;28;20054;-71
2021/05/27 06:20:24;;;;;;;10.82;4.13;;;10.20;99.90;;;;;;5023151;28;20465;-71
2021/05/27 06:22:51;;;;;;;16.58;4.93;;;10.20;99.90;;;;;;5024242;28;20131;-71
2021/05/27 06:25:19;;;;;;;11.57;4.63;;;10.10;99.90;;;;;;5023849;28;20575;-72
2021/05/27 06:27:46;;;;;;;11.38;4.60;;;10.20;99.90;;;;;;5040180;28;20507;-71
2021/05/27 06:30:13;;;;;;;9.30;4.50;;;10.20;99.90;;;;;;5025006;28;20069;-71
2021/05/27 06:32:40;;;;;;;14.97;4.60;;;10.20;99.90;;;;;;5026039;28;20095;-71
2021/05/27 06:35:10;;;;;;;10.05;4.10;;;10.20;99.90;;;;;;5011858;28;20115;-71
2021/05/27 06:37:38;;;;;;;11.57;4.05;;;10.20;99.90;;;;;;5025366;28;20130;-71
2021/05/27 06:40:09;;;;;;;12.07;4.45;;;10.20;99.90;;;;;;5022620;28;20511;-71
2021/05/27 06:42:36;;;;;;;15.55;5.13;;;10.20;99.90;;;;;;5023929;28;20072;-71
2021/05/27 06:45:04;;;;;;;12.80;4.20;;;10.20;99.90;;;;;;5024469;28;20099;-71
2021/05/27 06:47:31;;;;;;;13.50;4.23;;;10.20;99.90;;;;;;5026121;28;20137;-71
2021/05/27 06:49:57;;;;;;;11.00;4.93;;;10.20;99.90;;;;;;5026805;28;20135;-71
2021/05/27 06:52:24;;;;;;;12.52;4.82;;;10.20;99.90;;;;;;5030038;28;20076;-71
2021/05/27 06:54:52;;;;;;;8.73;4.20;;;10.20;99.90;;;;;;5028586;28;20068;-71
2021/05/27 06:57:19;;;;;;;8.10;4.47;;;10.20;99.90;;;;;;5029651;28;20178;-71
2021/05/27 06:59:46;;;;;;;13.13;4.82;;;10.20;99.90;;;;;;5012461;28;20421;-71
2021/05/27 07:02:25;;;;;;;12.48;4.85;;;10.20;99.90;;;;;;5012347;28;20054;-71
2021/05/27 07:04:52;;;;;;;15.68;4.78;;;10.20;99.90;;;;;;5012798;28;20603;-72
2021/05/27 07:07:19;;;;;;;11.60;4.30;;;10.20;99.90;;;;;;5028517;28;20108;-71
2021/05/27 07:09:45;;;;;;;16.50;5.57;;;10.20;99.90;;;;;;5028799;28;20557;-71
2021/05/27 07:12:12;;;;;;;10.55;4.07;;;10.20;99.90;;;;;;5027974;28;20133;-71
2021/05/27 07:14:39;;;;;;;12.15;4.80;;;10.20;99.90;;;;;;5012627;28;20137;-71
2021/05/27 07:17:06;;;;;;;11.45;4.20;;;10.20;99.90;;;;;;5031502;28;20490;-71
2021/05/27 07:19:32;;;;;;;13.10;4.20;;;10.20;99.90;;;;;;5027822;28;20127;-71
2021/05/27 07:22:00;;;;;;;11.68;4.82;;;10.20;99.90;;;;;;5042728;28;20111;-71
2021/05/27 07:24:28;;;;;;;15.27;5.13;;;10.20;99.90;;;;;;5030288;28;20132;-71
2021/05/27 07:26:55;;;;;;;11.25;4.60;;;10.20;99.90;;;;;;5029253;28;20072;-71
2021/05/27 07:29:21;;;;;;;10.30;4.22;;;10.20;99.90;;;;;;5027637;28;20115;-71
2021/05/27 07:31:48;;;;;;;15.32;4.47;;;10.20;99.90;;;;;;5027529;28;20125;-71
2021/05/27 07:34:15;;;;;;;10.32;4.85;;;10.20;99.90;;;;;;5029793;28;20496;-71
2021/05/27 07:36:42;;;;;;;11.27;5.00;;;10.30;99.90;;;;;;5029060;28;20073;-71
2021/05/27 07:39:08;;;;;;;12.60;5.30;;;10.30;99.90;;;;;;5041421;28;20534;-71
2021/05/27 07:41:35;;;;;;;13.77;5.68;;;10.30;99.90;;;;;;5028195;28;20090;-71
2021/05/27 07:44:02;;;;;;;12.52;4.95;;;10.20;99.90;;;;;;5011940;28;20481;-71
2021/05/27 07:46:34;;;;;;;15.90;5.90;;;10.30;99.90;;;;;;5025405;28;20101;-71
2021/05/27 07:49:01;;;;;;;21.67;7.63;;;10.30;99.90;;;;;;5024109;28;20447;-71
2021/05/27 07:51:27;;;;;;;19.02;6.10;;;10.30;99.90;;;;;;5026233;28;20045;-71
2021/05/27 07:53:54;;;;;;;14.07;5.35;;;10.40;99.90;;;;;;5028270;28;20049;-71
2021/05/27 07:56:21;;;;;;;14.75;5.25;;;10.40;99.90;;;;;;5027677;28;20052;-71
2021/05/27 07:58:48;;;;;;;13.93;4.95;;;10.40;99.90;;;;;;5024566;28;20073;-71
2021/05/27 08:01:15;;;;;;;13.50;4.50;;;10.40;99.90;;;;;;5026023;28;20140;-71
2021/05/27 08:03:42;;;;;;;14.20;4.87;;;10.40;99.90;;;;;;5027155;28;20049;-71
2021/05/27 08:06:09;;;;;;;17.52;5.53;;;10.40;99.90;;;;;;5028572;28;20073;-72
2021/05/27 08:08:36;;;;;;;13.80;4.90;;;10.50;99.90;;;;;;5008648;28;20045;-71
2021/05/27 08:11:02;;;;;;;14.13;4.70;;;10.50;99.90;;;;;;5042037;28;20487;-71
2021/05/27 08:13:29;;;;;;;13.60;5.18;;;10.50;99.90;;;;;;5010940;28;20063;-71
2021/05/27 08:15:56;;;;;;;10.38;4.32;;;10.50;99.90;;;;;;5025046;28;20041;-71
2021/05/27 08:18:23;;;;;;;18.52;5.35;;;10.50;99.90;;;;;;5042249;28;20077;-70
2021/05/27 08:20:49;;;;;;;9.75;4.43;;;10.50;99.90;;;;;;5025233;28;20080;-71
2021/05/27 08:23:16;;;;;;;11.85;4.10;;;10.50;99.90;;;;;;5010532;28;20313;-71
2021/05/27 08:25:44;;;;;;;14.85;5.50;;;10.50;99.90;;;;;;5026090;28;20752;-72
2021/05/27 08:28:11;;;;;;;15.23;5.07;;;10.50;99.90;;;;;;5027076;28;20127;-71
2021/05/27 08:30:38;;;;;;;10.77;4.32;;;10.50;99.90;;;;;;5028008;28;20280;-71
2021/05/27 08:33:05;;;;;;;13.10;4.30;;;10.50;99.90;;;;;;5030545;28;20136;-71
2021/05/27 08:35:32;;;;;;;17.08;4.85;;;10.50;99.90;;;;;;5027758;28;20069;-71
2021/05/27 08:37:58;;;;;;;12.27;4.82;;;10.60;99.90;;;;;;5026921;28;20069;-71
2021/05/27 08:40:25;;;;;;;12.15;4.70;;;10.60;99.90;;;;;;5026532;28;20068;-71
2021/05/27 08:42:57;;;;;;;13.45;5.07;;;10.60;99.90;;;;;;5028431;28;20048;-71
2021/05/27 08:45:29;;;;;;;10.65;4.93;;;10.60;99.90;;;;;;5022788;28;20791;-71
2021/05/27 08:47:56;;;;;;;13.27;4.53;;;10.60;99.90;;;;;;5041938;28;20041;-71
2021/05/27 08:50:29;;;;;;;10.20;4.32;;;10.60;99.90;;;;;;5027031;28;20045;-71
2021/05/27 08:53:00;;;;;;;8.50;3.92;;;10.60;99.90;;;;;;5028314;28;20413;-71
2021/05/27 08:55:27;;;;;;;10.80;4.07;;;10.60;99.90;;;;;;5026518;28;20382;-71
2021/05/27 08:57:53;;;;;;;13.02;4.35;;;10.60;99.90;;;;;;5028451;28;20073;-71
2021/05/27 09:00:20;;;;;;;13.15;4.45;;;10.60;99.90;;;;;;5040234;28;20107;-71
2021/05/27 09:03:00;;;;;;;14.63;4.00;;;10.60;99.90;;;;;;5025557;28;20076;-71
2021/05/27 09:05:30;;;;;;;10.57;4.65;;;10.60;99.90;;;;;;5028050;28;20219;-71
2021/05/27 09:07:58;;;;;;;12.55;4.90;;;10.60;99.90;;;;;;5026638;28;20103;-71
2021/05/27 09:10:39;;;;;;;14.70;4.70;;;10.70;99.90;;;;;;5029379;28;20127;-71
2021/05/27 09:13:10;;;;;;;10.60;4.03;;;10.80;99.90;;;;;;5039744;28;20045;-71
2021/05/27 09:15:37;;;;;;;13.98;4.43;;;10.80;99.90;;;;;;5041382;28;20049;-71
2021/05/27 09:18:04;;;;;;;13.68;4.80;;;10.90;99.90;;;;;;5028645;28;20050;-72
2021/05/27 09:20:32;;;;;;;14.45;4.20;;;10.90;99.90;;;;;;5024249;28;20065;-71
2021/05/27 09:23:07;;;;;;;14.15;4.22;;;11.00;99.90;;;;;;5027470;28;20072;-71
2021/05/27 09:25:36;;;;;;;16.60;4.75;;;11.00;99.90;;;;;;5010358;28;20076;-71
2021/05/27 09:28:04;;;;;;;11.55;4.47;;;11.00;99.90;;;;;;5026101;28;20140;-72
2021/05/27 09:30:41;;;;;;;12.02;4.28;;;11.00;99.90;;;;;;5027896;28;20080;-71
2021/05/27 09:33:10;;;;;;;15.45;5.05;;;11.00;99.90;;;;;;5028038;28;20081;-71
2021/05/27 09:35:39;;;;;;;16.15;4.57;;;11.00;99.90;;;;;;5026930;28;20343;-72
2021/05/27 09:38:06;;;;;;;15.70;4.07;;;11.00;99.90;;;;;;5027143;28;20477;-71
2021/05/27 09:40:46;;;;;;;10.50;4.60;;;11.00;99.90;;;;;;5026244;28;20069;-71
2021/05/27 09:43:22;;;;;;;15.68;5.32;;;11.00;99.90;;;;;;5026152;28;20882;-72
2021/05/27 09:46:06;;;;;;;13.65;4.90;;;11.10;99.90;;;;;;5025750;28;20068;-72
2021/05/27 09:48:34;;;;;;;17.70;4.70;;;11.10;99.90;;;;;;5006369;28;20123;-72
2021/05/27 09:51:03;;;;;;;15.48;4.70;;;11.00;99.90;;;;;;5025037;28;20495;-71
2021/05/27 09:53:31;;;;;;;;;;;11.00;99.90;;;;;;5028366;28;20524;-72
2021/05/27 09:56:04;;;;;;;12.52;4.60;;;11.00;99.90;;;;;;5025063;28;19928;-72
2021/05/27 09:58:31;;;;;;;14.90;4.55;;;11.10;99.90;;;;;;5024969;28;20041;-71
2021/05/27 10:01:07;;;;;;;13.10;4.20;;;11.10;99.90;;;;;;5024836;28;20643;-71
2021/05/27 10:03:39;;;;;;;13.77;4.43;;;11.10;99.90;;;;;;5042043;28;20073;-71
2021/05/27 10:06:10;;;;;;;11.32;4.53;;;11.20;99.90;;;;;;5023184;28;20061;-71
2021/05/27 10:08:47;;;;;;;11.55;4.28;;;11.20;99.90;;;;;;5029035;28;20045;-71
2021/05/27 10:11:15;;;;;;;15.57;4.80;;;11.20;99.90;;;;;;5026578;28;20096;-71
2021/05/27 10:13:42;;;;;;;16.27;5.05;;;11.20;99.90;;;;;;5010949;28;20049;-71
2021/05/27 10:16:17;;;;;;;13.10;4.23;;;11.30;99.90;;;;;;5026929;28;20096;-72
2021/05/27 10:18:55;;;;;;;14.85;4.72;;;11.30;99.90;;;;;;5024063;28;20311;-71
2021/05/27 10:21:24;;;;;;;11.00;4.40;;;11.30;99.90;;;;;;5021201;28;20085;-72
2021/05/27 10:23:54;;;;;;;13.57;4.82;;;11.30;99.90;;;;;;5026393;28;20127;-71
2021/05/27 10:26:22;;;;;;;10.63;4.05;;;11.30;99.90;;;;;;5026196;28;24688;-71
2021/05/27 10:29:09;;;;;;;9.95;3.92;;;11.30;99.90;;;;;;5027573;28;20050;-71
2021/05/27 10:31:43;;;;;;;16.45;5.03;;;11.30;99.90;;;;;;5023179;28;20119;-72
2021/05/27 10:34:42;;;;;;;13.65;4.15;;;11.30;99.90;;;;;;5026338;28;20037;-72
2021/05/27 10:37:09;;;;;;;13.77;4.97;;;11.30;99.90;;;;;;5008648;28;20103;-72
2021/05/27 10:39:38;;;;;;;14.75;4.88;;;11.30;99.90;;;;;;5025926;28;20045;-70
2021/05/27 10:42:05;;;;;;;10.27;4.27;;;11.30;99.90;;;;;;5025835;28;20400;-71
2021/05/27 10:44:32;;;;;;;11.77;4.63;;;11.20;99.90;;;;;;5009858;28;20041;-72
2021/05/27 10:46:59;;;;;;;13.65;4.80;;;11.20;99.90;;;;;;5025648;28;20095;-71
2021/05/27 10:49:39;;;;;;;15.55;5.60;;;11.20;99.90;;;;;;5006785;28;20061;-72
2021/05/27 10:52:25;;;;;;;16.85;6.10;;;11.20;99.90;;;;;;5025163;28;20516;-72
2021/05/27 10:54:55;;;;;;;13.55;5.32;;;11.20;99.90;;;;;;5029731;28;20124;-71
2021/05/27 10:57:39;;;;;;;15.88;5.50;;;11.10;99.90;;;;;;5023114;28;20089;-71
2021/05/27 11:00:13;;;;;;;16.95;5.13;;;11.10;99.90;;;;;;5025050;28;20053;-71
2021/05/27 11:02:40;;;;;;;15.98;6.05;;;11.10;99.90;;;;;;5024763;28;20468;-72
2021/05/27 11:05:17;;;;;;;19.55;6.75;;;11.10;99.90;;;;;;5024972;28;20049;-72
2021/05/27 11:08:16;;;;;;;16.38;5.50;;;11.10;99.90;;;;;;5024679;28;20072;-72
2021/05/27 11:10:46;;;;;;;17.95;5.78;;;11.10;99.90;;;;;;5023061;28;20046;-72
2021/05/27 11:13:13;;;;;;;12.93;5.38;;;11.10;99.90;;;;;;5026352;28;20121;-72
2021/05/27 11:16:03;;;;;;;13.20;5.18;;;11.10;99.90;;;;;;5025391;28;20081;-72
2021/05/27 11:18:33;;;;;;;14.93;4.93;;;11.10;99.90;;;;;;5022839;28;20055;-72
2021/05/27 11:21:38;;;;;;;15.43;5.18;;;11.00;99.90;;;;;;5024731;28;20128;-72
2021/05/27 11:24:35;;;;;;;16.55;5.07;;;11.00;99.90;;;;;;5026838;28;20457;-72
2021/05/27 11:27:24;;;;;;;16.65;5.40;;;11.10;99.90;;;;;;5024675;28;20127;-71
2021/05/27 11:30:22;;;;;;;19.17;6.05;;;11.20;99.90;;;;;;5025591;28;20106;-72
2021/05/27 11:32:50;;;;;;;14.35;5.68;;;11.30;99.90;;;;;;5027387;28;20143;-72
2021/05/27 11:35:18;;;;;;;18.13;6.70;;;11.40;99.90;;;;;;5028734;28;20754;-71
2021/05/27 11:37:47;;;;;;;15.02;5.55;;;11.50;99.90;;;;;;5029509;28;20520;-72
2021/05/27 11:40:16;;;;;;;12.90;6.10;;;11.70;99.90;;;;;;5028094;28;20129;-72
2021/05/27 11:43:02;;;;;;;18.35;5.93;;;11.90;99.90;;;;;;5027987;28;20500;-73
2021/05/27 11:45:39;;;;;;;18.17;6.10;;;12.00;99.90;;;;;;5030838;28;20100;-72
2021/05/27 11:50:45;;;;;;;13.95;5.45;;;12.20;99.90;;;;;;5027747;28;20050;-72
2021/05/27 11:53:12;;;;;;;14.88;5.38;;;12.20;99.90;;;;;;5031362;28;20081;-72
2021/05/27 11:55:39;;;;;;;12.13;5.03;;;12.20;99.90;;;;;;5029511;28;20471;-71
2021/05/27 11:58:06;;;;;;;13.82;4.70;;;12.20;99.90;;;;;;5026594;28;20316;-72
2021/05/27 12:00:33;;;;;;;11.88;5.10;;;12.20;99.90;;;;;;5027807;28;20092;-72
2021/05/27 12:03:00;;;;;;;16.40;5.13;;;12.10;99.90;;;;;;5030169;28;20495;-71
2021/05/27 12:05:28;;;;;;;17.08;5.00;;;12.10;99.90;;;;;;5028768;28;20409;-72
2021/05/27 12:08:03;;;;;;;12.10;4.10;;;12.00;99.90;;;;;;5031280;28;20434;-72
2021/05/27 12:10:35;;;;;;;12.23;4.82;;;12.00;99.90;;;;;;5029661;28;20152;-70
2021/05/27 12:13:04;;;;;;;11.05;4.00;;;11.90;99.90;;;;;;5027602;28;20464;-70
2021/05/27 12:15:31;;;;;;;14.48;4.10;;;11.90;99.90;;;;;;5030425;28;20519;-71
2021/05/27 12:17:58;;;;;;;10.40;3.72;;;11.90;99.90;;;;;;5027923;28;20119;-72
2021/05/27 12:20:31;;;;;;;10.90;3.35;;;11.90;99.90;;;;;;5027741;28;20414;-72
2021/05/27 12:23:05;;;;;;;10.88;4.13;;;11.90;99.90;;;;;;5030578;28;20128;-72
2021/05/27 12:25:41;;;;;;;15.00;4.05;;;11.90;99.90;;;;;;5028783;28;20096;-72
2021/05/27 12:28:10;;;;;;;11.38;3.30;;;12.10;99.90;;;;;;5028046;28;20049;-72
2021/05/27 12:30:40;;;;;;;10.27;3.60;;;12.20;99.90;;;;;;5028390;28;20096;-72
2021/05/27 12:33:09;;;;;;;11.38;3.30;;;12.50;99.90;;;;;;5024976;28;20099;-72
2021/05/27 12:35:39;;;;;;;9.82;3.08;;;12.70;99.90;;;;;;5029739;28;20100;-72
2021/05/27 12:38:08;;;;;;;9.88;2.67;;;12.80;99.90;;;;;;5025964;28;20056;-72
2021/05/27 12:40:40;;;;;;;9.30;2.80;;;12.90;99.90;;;;;;5025903;28;20093;-72
2021/05/27 12:43:33;;;;;;;7.25;2.33;;;12.90;99.90;;;;;;5028211;28;20049;-72
2021/05/27 12:46:13;;;;;;;6.68;2.35;;;12.90;99.90;;;;;;5029112;28;20536;-72
2021/05/27 12:48:55;;;;;;;10.30;2.53;;;12.80;99.90;;;;;;5030409;28;20046;-72
2021/05/27 12:51:24;;;;;;;10.10;2.28;;;12.80;99.90;;;;;;5027961;28;20141;-72
2021/05/27 12:53:52;;;;;;;8.48;2.08;;;12.70;99.90;;;;;;5030452;28;20374;-72
2021/05/27 12:56:22;;;;;;;6.35;1.73;;;12.60;99.90;;;;;;5029236;28;20414;-72
2021/05/27 12:59:09;;;;;;;13.65;3.53;;;12.60;99.90;;;;;;5008538;28;20061;-72
2021/05/27 13:01:50;;;;;;;8.10;1.92;;;12.50;99.90;;;;;;5027482;28;20151;-72
2021/05/27 13:04:20;;;;;;;10.32;1.98;;;12.50;99.90;;;;;;5026453;28;20095;-72